Laverock, Pennsylvania
Current Conditions -  °F | °C
As of 8:35 PM on Monday 24 Nov 2014 (Local Time) from KLOM Reporting Station
Clear Clear  
Wind Chill: 64°   Ceiling: Unl
Heat Index: 64°   Visibility: 10mi
Dew Point: 55°   Wind: 7mph
Humidity: 73%   Direction: 210°SSW
Pressure: 29.7"   Gusts: NA
Location:  40.1012°N, 75.1722°W
Report Text: KLOM 250135Z AUTO 21006KT 10SM CLR 18/13 A2970 RMK AO1
Loading
Personal Weather Stations






























Interactive Weather Map New forecast layout! Learn more

10-Day Weather Forecast

Advertisements
Track Severe Weather on mobile